createdAt,value
2022-11-23T00:00:12.387Z,8.80
2022-11-23T00:02:34.799Z,7.37
2022-11-23T00:04:57.054Z,8.20
2022-11-23T00:07:19.354Z,10.53
2022-11-23T00:09:41.664Z,16.37
2022-11-23T00:12:03.935Z,12.70
2022-11-23T00:14:26.200Z,13.60
2022-11-23T00:16:48.399Z,14.97
2022-11-23T00:19:10.641Z,15.50
2022-11-23T00:21:33.575Z,11.80
2022-11-23T00:23:55.977Z,11.47
2022-11-23T00:26:18.643Z,8.93
2022-11-23T00:28:42.082Z,9.70
2022-11-23T00:31:04.399Z,16.43
2022-11-23T00:33:26.669Z,8.67
2022-11-23T00:35:48.963Z,14.53
2022-11-23T00:38:11.253Z,9.13
2022-11-23T00:40:33.468Z,10.27
2022-11-23T00:42:55.699Z,9.60
2022-11-23T00:45:18.176Z,13.37
2022-11-23T00:47:40.450Z,11.60
2022-11-23T00:50:03.141Z,15.87
2022-11-23T00:52:25.400Z,9.70
2022-11-23T00:54:47.572Z,14.67
2022-11-23T00:57:09.883Z,11.10
2022-11-23T00:59:32.440Z,13.23
2022-11-23T01:01:55.888Z,15.83
2022-11-23T01:04:18.121Z,12.73
2022-11-23T01:06:41.009Z,15.37
2022-11-23T01:09:05.599Z,15.23
2022-11-23T01:11:28.893Z,11.50
2022-11-23T01:13:51.519Z,9.33
2022-11-23T01:16:23.846Z,11.07
2022-11-23T01:18:46.812Z,7.40
2022-11-23T01:21:09.167Z,21.07
2022-11-23T01:23:33.747Z,15.13
2022-11-23T01:25:57.145Z,8.83
2022-11-23T01:28:19.599Z,13.87
2022-11-23T01:30:42.051Z,13.73
2022-11-23T01:33:04.581Z,12.20
2022-11-23T01:35:26.908Z,14.80
2022-11-23T01:37:49.161Z,12.70
2022-11-23T01:40:11.672Z,17.67
2022-11-23T01:42:41.108Z,12.37
2022-11-23T01:45:22.449Z,14.63
2022-11-23T01:47:47.447Z,13.00
2022-11-23T01:50:09.743Z,11.57
2022-11-23T01:52:32.019Z,9.83
2022-11-23T01:54:56.546Z,10.30
2022-11-23T01:57:21.528Z,11.77
2022-11-23T01:59:43.802Z,13.17
2022-11-23T02:02:06.297Z,13.40
2022-11-23T02:04:31.960Z,15.47
2022-11-23T02:06:55.171Z,10.97
2022-11-23T02:09:17.879Z,14.47
2022-11-23T02:11:40.159Z,9.47
2022-11-23T02:14:02.388Z,13.03
2022-11-23T02:16:25.449Z,13.13
2022-11-23T02:18:48.923Z,13.50
2022-11-23T02:21:11.126Z,14.13
2022-11-23T02:23:35.715Z,11.87
2022-11-23T02:26:03.296Z,10.03
2022-11-23T02:28:30.548Z,10.43
2022-11-23T02:30:54.487Z,11.57
2022-11-23T02:33:18.809Z,14.20
2022-11-23T02:35:57.295Z,12.83
2022-11-23T02:38:20.062Z,11.27
2022-11-23T02:40:42.332Z,14.07
2022-11-23T02:43:04.701Z,11.00
2022-11-23T02:45:42.023Z,14.87
2022-11-23T02:48:04.713Z,17.20
2022-11-23T02:50:26.955Z,12.47
2022-11-23T02:52:49.212Z,10.90
2022-11-23T02:55:11.604Z,8.00
2022-11-23T02:57:33.952Z,10.87
2022-11-23T02:59:56.180Z,15.90
2022-11-23T03:02:18.434Z,12.37
2022-11-23T03:04:40.669Z,12.43
2022-11-23T03:07:02.861Z,13.87
2022-11-23T03:09:26.328Z,11.17
2022-11-23T03:11:48.844Z,15.00
2022-11-23T03:14:11.223Z,14.73
2022-11-23T03:16:43.043Z,11.93
2022-11-23T03:19:05.990Z,10.63
2022-11-23T03:21:28.524Z,14.60
2022-11-23T03:23:50.733Z,14.17
2022-11-23T03:26:13.467Z,14.27
2022-11-23T03:28:45.470Z,12.00
2022-11-23T03:31:09.008Z,18.77
2022-11-23T03:33:32.876Z,12.83
2022-11-23T03:35:56.278Z,12.43
2022-11-23T03:38:22.681Z,15.30
2022-11-23T03:40:46.175Z,23.13
2022-11-23T03:43:17.145Z,15.27
2022-11-23T03:45:39.498Z,19.20
2022-11-23T03:48:01.992Z,12.13
2022-11-23T03:50:26.114Z,14.67
2022-11-23T03:52:51.734Z,14.87
2022-11-23T03:55:13.981Z,12.27
2022-11-23T03:57:36.184Z,13.63
2022-11-23T04:00:00.265Z,14.57
2022-11-23T04:02:22.507Z,13.33
2022-11-23T04:04:58.531Z,15.70
2022-11-23T04:07:43.854Z,9.73
2022-11-23T04:10:06.489Z,12.70
2022-11-23T04:12:50.880Z,13.93
2022-11-23T04:15:13.557Z,14.83
2022-11-23T04:17:36.875Z,12.87
2022-11-23T04:19:59.180Z,11.30
2022-11-23T04:22:21.557Z,10.40
2022-11-23T04:24:44.164Z,13.37
2022-11-23T04:27:06.579Z,11.63
2022-11-23T04:29:28.764Z,12.97
2022-11-23T04:31:51.900Z,12.63
2022-11-23T04:34:15.066Z,15.03
2022-11-23T04:36:38.167Z,17.43
2022-11-23T04:39:01.313Z,10.77
2022-11-23T04:41:31.929Z,9.97
2022-11-23T04:43:54.844Z,9.50
2022-11-23T04:46:18.625Z,9.63
2022-11-23T04:48:41.309Z,11.87
2022-11-23T04:51:03.554Z,14.20
2022-11-23T04:53:32.550Z,10.03
2022-11-23T04:55:55.707Z,11.13
2022-11-23T04:58:18.427Z,11.07
2022-11-23T05:00:44.526Z,11.83
2022-11-23T05:03:08.463Z,14.33
2022-11-23T05:05:32.369Z,10.97
2022-11-23T05:07:55.735Z,9.87
2022-11-23T05:10:21.107Z,13.23
2022-11-23T05:12:43.825Z,11.33
2022-11-23T05:15:07.424Z,10.87
2022-11-23T05:17:34.180Z,14.40
2022-11-23T05:19:56.516Z,15.80
2022-11-23T05:22:19.895Z,15.97
2022-11-23T05:24:42.752Z,11.30
2022-11-23T05:27:11.881Z,11.73
2022-11-23T05:29:34.495Z,12.13
2022-11-23T05:31:56.963Z,10.60
2022-11-23T05:34:19.218Z,11.07
2022-11-23T05:36:42.655Z,19.70
2022-11-23T05:39:05.467Z,10.53
2022-11-23T05:41:28.159Z,12.17
2022-11-23T05:43:53.358Z,15.03
2022-11-23T05:46:20.154Z,14.50
2022-11-23T05:48:45.293Z,15.73
2022-11-23T05:51:08.723Z,16.27
2022-11-23T05:53:34.757Z,14.07
2022-11-23T05:56:10.257Z,14.70
2022-11-23T05:58:41.983Z,11.90
2022-11-23T06:01:04.811Z,9.13
2022-11-23T06:03:30.897Z,7.17
2022-11-23T06:05:53.429Z,12.37
2022-11-23T06:08:22.998Z,14.50
2022-11-23T06:10:45.269Z,19.37
2022-11-23T06:13:07.680Z,14.87
2022-11-23T06:15:30.730Z,16.47
2022-11-23T06:17:52.978Z,13.23
2022-11-23T06:20:17.343Z,14.30
2022-11-23T06:22:52.119Z,16.43
2022-11-23T06:25:15.188Z,12.83
2022-11-23T06:27:56.659Z,17.10
2022-11-23T06:30:25.124Z,11.77
2022-11-23T06:32:48.122Z,11.70
2022-11-23T06:35:12.069Z,9.57
2022-11-23T06:37:41.310Z,9.27
2022-11-23T06:40:05.251Z,9.87
2022-11-23T06:42:38.853Z,15.43
2022-11-23T06:45:12.828Z,18.17
2022-11-23T06:47:36.438Z,9.70
2022-11-23T06:50:00.161Z,12.50
2022-11-23T06:52:24.905Z,14.27
2022-11-23T06:54:47.951Z,17.43
2022-11-23T06:57:13.333Z,14.70
2022-11-23T06:59:39.457Z,10.90
2022-11-23T07:04:53.632Z,14.10
2022-11-23T07:07:18.902Z,12.10
2022-11-23T07:10:02.650Z,12.47
2022-11-23T07:12:34.086Z,18.80
2022-11-23T07:15:04.335Z,13.10
2022-11-23T07:17:34.785Z,12.67
2022-11-23T07:20:00.296Z,10.60
2022-11-23T07:22:22.747Z,11.07
2022-11-23T07:24:50.319Z,8.93
2022-11-23T07:27:13.022Z,16.10
2022-11-23T07:29:35.562Z,11.97
2022-11-23T07:31:58.334Z,12.43
2022-11-23T07:34:21.999Z,12.57
2022-11-23T07:36:44.757Z,12.20
2022-11-23T07:39:18.202Z,10.93
2022-11-23T07:41:40.771Z,10.27
2022-11-23T07:44:13.858Z,10.10
2022-11-23T07:46:36.751Z,14.30
2022-11-23T07:49:02.437Z,15.53
2022-11-23T07:51:27.833Z,19.33
2022-11-23T07:53:55.847Z,16.33
2022-11-23T07:56:21.618Z,13.07
2022-11-23T07:58:44.372Z,11.90
2022-11-23T08:01:09.291Z,12.10
2022-11-23T08:03:42.449Z,9.40
2022-11-23T08:06:06.742Z,12.33
2022-11-23T08:08:39.649Z,14.63
2022-11-23T08:11:07.889Z,10.93
2022-11-23T08:13:33.205Z,10.80
2022-11-23T08:15:56.237Z,9.80
2022-11-23T08:18:18.777Z,10.00
2022-11-23T08:20:45.920Z,11.23
2022-11-23T08:23:09.638Z,14.53
2022-11-23T08:25:32.249Z,9.20
2022-11-23T08:28:01.990Z,13.67
2022-11-23T08:30:24.260Z,12.53
2022-11-23T08:32:46.668Z,12.70
2022-11-23T08:35:08.891Z,12.67
2022-11-23T08:37:31.347Z,12.07
2022-11-23T08:39:53.636Z,16.27
2022-11-23T08:42:15.978Z,10.63
2022-11-23T08:44:38.279Z,15.40
2022-11-23T08:47:01.398Z,15.97
2022-11-23T08:49:23.753Z,14.47
2022-11-23T08:51:50.052Z,15.50
2022-11-23T08:54:12.699Z,13.80
2022-11-23T08:56:35.103Z,18.43
2022-11-23T08:58:57.426Z,13.83
2022-11-23T09:01:19.824Z,16.23
2022-11-23T09:03:42.631Z,10.73
2022-11-23T09:06:04.933Z,12.80
2022-11-23T09:08:27.144Z,12.90
2022-11-23T09:10:49.329Z,14.70
2022-11-23T09:13:11.620Z,16.53
2022-11-23T09:15:33.828Z,12.87
2022-11-23T09:17:56.971Z,11.93
2022-11-23T09:20:19.343Z,12.73
2022-11-23T09:22:41.631Z,12.77
2022-11-23T09:25:04.380Z,26.23
2022-11-23T09:27:26.719Z,9.73
2022-11-23T09:29:48.990Z,13.60
2022-11-23T09:32:11.328Z,10.47
2022-11-23T09:34:33.799Z,11.57
2022-11-23T09:36:58.050Z,12.97
2022-11-23T09:39:20.361Z,12.13
2022-11-23T09:41:51.755Z,8.43
2022-11-23T09:44:34.504Z,12.70
2022-11-23T09:47:19.891Z,14.67
2022-11-23T09:49:48.820Z,10.87
2022-11-23T09:52:15.950Z,11.60
2022-11-23T09:54:38.607Z,14.70
2022-11-23T09:57:02.084Z,10.00
2022-11-23T09:59:30.517Z,11.27
2022-11-23T10:01:52.765Z,10.97
2022-11-23T10:04:19.451Z,13.47
2022-11-23T10:06:44.047Z,10.13
2022-11-23T10:09:24.283Z,11.13
2022-11-23T10:11:49.296Z,9.63
2022-11-23T10:14:20.562Z,13.93
2022-11-23T10:16:48.759Z,7.70
2022-11-23T10:19:16.863Z,9.40
2022-11-23T10:21:59.834Z,9.10
2022-11-23T10:24:28.541Z,8.70
2022-11-23T10:26:50.798Z,8.47
2022-11-23T10:29:28.120Z,10.57
2022-11-23T10:31:56.678Z,10.87
2022-11-23T10:34:25.132Z,10.50
2022-11-23T10:36:47.388Z,10.70
2022-11-23T10:39:23.094Z,7.63
2022-11-23T10:41:46.509Z,7.10
2022-11-23T10:44:20.987Z,10.07
2022-11-23T10:46:44.499Z,12.57
2022-11-23T10:49:11.587Z,8.87
2022-11-23T10:51:34.417Z,10.53
2022-11-23T10:54:02.086Z,10.67
2022-11-23T10:56:27.523Z,6.37
2022-11-23T10:58:50.134Z,7.57
2022-11-23T11:01:17.776Z,7.50
2022-11-23T11:03:40.205Z,10.60
2022-11-23T11:06:11.253Z,6.87
2022-11-23T11:08:35.388Z,10.23
2022-11-23T11:11:00.366Z,8.67
2022-11-23T11:13:25.196Z,10.57
2022-11-23T11:15:54.265Z,7.37
2022-11-23T11:18:20.261Z,6.27
2022-11-23T11:20:46.590Z,6.27
2022-11-23T11:23:19.668Z,6.83
2022-11-23T11:25:42.636Z,7.07
2022-11-23T11:28:07.210Z,8.50
2022-11-23T11:30:35.188Z,10.80
2022-11-23T11:33:08.389Z,5.90
2022-11-23T11:35:33.291Z,8.67
2022-11-23T11:37:58.799Z,6.93
2022-11-23T11:40:43.400Z,6.97
2022-11-23T11:43:08.109Z,6.23
2022-11-23T11:45:34.462Z,5.00
2022-11-23T11:48:05.210Z,6.30
2022-11-23T11:50:33.575Z,6.80
2022-11-23T11:52:59.289Z,6.53
2022-11-23T11:55:31.435Z,6.37
2022-11-23T11:57:56.912Z,5.37
2022-11-23T12:00:20.417Z,5.33
2022-11-23T12:03:02.096Z,3.10
2022-11-23T12:05:31.322Z,8.93
2022-11-23T12:08:01.655Z,3.53
2022-11-23T12:10:33.260Z,5.10
2022-11-23T12:12:56.837Z,3.77
2022-11-23T12:15:47.671Z,2.03
2022-11-23T12:18:29.575Z,5.50
2022-11-23T12:20:58.823Z,4.87
2022-11-23T12:23:30.713Z,5.03
2022-11-23T12:26:07.659Z,2.60
2022-11-23T12:28:36.890Z,3.27
2022-11-23T12:31:09.388Z,4.67
2022-11-23T12:33:44.817Z,4.70
2022-11-23T12:36:20.666Z,3.40
2022-11-23T12:39:11.060Z,2.83
2022-11-23T12:41:36.956Z,4.30
2022-11-23T12:44:02.293Z,2.13
2022-11-23T12:46:41.389Z,3.80
2022-11-23T12:49:07.227Z,4.37
2022-11-23T12:51:38.266Z,5.53
2022-11-23T12:54:14.060Z,3.17
2022-11-23T12:56:45.908Z,4.60
2022-11-23T12:59:10.882Z,8.47
2022-11-23T13:01:40.701Z,4.00
2022-11-23T13:04:21.359Z,6.90
2022-11-23T13:06:59.367Z,4.10
2022-11-23T13:09:29.486Z,4.13
2022-11-23T13:12:20.795Z,7.50
2022-11-23T13:15:02.126Z,4.00
2022-11-23T13:17:44.224Z,3.27
2022-11-23T13:20:16.034Z,2.03
2022-11-23T13:22:39.699Z,4.20
2022-11-23T13:25:19.748Z,3.70
2022-11-23T13:27:54.578Z,6.57
2022-11-23T13:30:45.523Z,4.17
2022-11-23T13:33:25.423Z,5.77
2022-11-23T13:35:53.328Z,3.80
2022-11-23T13:38:24.996Z,6.27
2022-11-23T13:40:47.406Z,3.87
2022-11-23T13:43:10.133Z,7.13
2022-11-23T13:45:39.189Z,3.30
2022-11-23T13:48:34.229Z,6.87
2022-11-23T13:51:01.242Z,5.80
2022-11-23T13:53:45.531Z,2.80
2022-11-23T13:56:17.493Z,7.00
2022-11-23T13:58:40.753Z,4.80
2022-11-23T14:01:03.613Z,3.90
2022-11-23T14:03:44.430Z,4.70
2022-11-23T14:06:16.008Z,7.03
2022-11-23T14:08:40.411Z,4.50
2022-11-23T14:11:13.904Z,5.40
2022-11-23T14:13:36.441Z,3.53
2022-11-23T14:16:03.427Z,5.93
2022-11-23T14:18:44.753Z,3.40
2022-11-23T14:21:36.274Z,2.67
2022-11-23T14:24:01.989Z,4.87
2022-11-23T14:26:39.499Z,4.10
2022-11-23T14:29:15.928Z,3.77
2022-11-23T14:31:50.198Z,5.40
2022-11-23T14:34:21.682Z,4.77
2022-11-23T14:37:02.927Z,3.90
2022-11-23T14:39:28.618Z,3.43
2022-11-23T14:41:55.721Z,5.57
2022-11-23T14:44:18.391Z,7.10
2022-11-23T14:47:00.448Z,4.73
2022-11-23T14:49:26.002Z,4.83
2022-11-23T14:51:49.944Z,4.57
2022-11-23T14:54:19.288Z,5.00
2022-11-23T14:56:52.952Z,5.93
2022-11-23T14:59:18.377Z,6.67
2022-11-23T15:01:42.466Z,5.63
2022-11-23T15:04:12.034Z,4.47
2022-11-23T15:06:37.628Z,4.93
2022-11-23T15:09:07.707Z,5.13
2022-11-23T15:11:31.028Z,3.60
2022-11-23T15:14:10.822Z,6.33
2022-11-23T15:16:42.516Z,5.70
2022-11-23T15:19:17.817Z,3.73
2022-11-23T15:21:41.024Z,4.27
2022-11-23T15:24:03.410Z,6.23
2022-11-23T15:29:32.324Z,6.90
2022-11-23T15:32:22.244Z,5.73
2022-11-23T15:34:41.056Z,4.60
2022-11-23T15:37:03.690Z,4.83
2022-11-23T15:39:26.193Z,4.73
2022-11-23T15:41:49.160Z,5.10
2022-11-23T15:44:25.629Z,11.37
2022-11-23T15:46:50.654Z,6.50
2022-11-23T15:49:14.836Z,5.80
2022-11-23T15:51:41.603Z,4.50
2022-11-23T15:54:03.955Z,7.43
2022-11-23T15:56:31.279Z,6.27
2022-11-23T15:58:54.452Z,3.40
2022-11-23T16:01:16.993Z,3.60
2022-11-23T16:03:58.220Z,4.77
2022-11-23T16:06:34.203Z,4.53
2022-11-23T16:08:56.472Z,6.83
2022-11-23T16:11:37.505Z,5.63
2022-11-23T16:14:12.670Z,6.90
2022-11-23T16:16:35.189Z,3.43
2022-11-23T16:19:03.269Z,4.60
2022-11-23T16:21:25.668Z,3.60
2022-11-23T16:23:54.064Z,4.07
2022-11-23T16:26:19.297Z,5.67
2022-11-23T16:28:49.249Z,3.40
2022-11-23T16:31:30.319Z,6.20
2022-11-23T16:33:52.575Z,4.80
2022-11-23T16:36:14.998Z,4.17
2022-11-23T16:38:37.444Z,4.00
2022-11-23T16:40:59.763Z,4.50
2022-11-23T16:43:22.112Z,6.13
2022-11-23T16:45:48.528Z,4.33
2022-11-23T16:48:26.187Z,4.73
2022-11-23T16:50:48.707Z,4.80
2022-11-23T16:53:13.816Z,5.20
2022-11-23T16:55:42.272Z,6.20
2022-11-23T16:58:06.062Z,6.20
2022-11-23T17:00:32.701Z,6.50
2022-11-23T17:02:55.393Z,6.30
2022-11-23T17:05:19.029Z,8.17
2022-11-23T17:07:41.460Z,7.87
2022-11-23T17:10:04.002Z,7.20
2022-11-23T17:12:26.385Z,10.17
2022-11-23T17:14:49.501Z,8.43
2022-11-23T17:17:13.247Z,10.93
2022-11-23T17:19:35.922Z,7.63
2022-11-23T17:21:58.582Z,6.30
2022-11-23T17:24:23.995Z,10.17
2022-11-23T17:26:47.217Z,11.43
2022-11-23T17:29:19.193Z,8.57
2022-11-23T17:31:43.563Z,7.57
2022-11-23T17:34:05.967Z,8.77
2022-11-23T17:36:31.918Z,8.53
2022-11-23T17:38:58.942Z,9.37
2022-11-23T17:41:21.303Z,9.30
2022-11-23T17:43:52.953Z,9.30
2022-11-23T17:46:20.819Z,10.53
2022-11-23T17:48:43.410Z,9.23
2022-11-23T17:51:05.737Z,7.60
2022-11-23T17:53:28.183Z,6.87
2022-11-23T17:55:52.668Z,6.73
2022-11-23T17:58:15.154Z,8.30
2022-11-23T18:00:38.489Z,6.70
2022-11-23T18:03:00.872Z,5.53
2022-11-23T18:05:23.366Z,8.87
2022-11-23T18:07:45.676Z,10.07
2022-11-23T18:10:08.554Z,8.37
2022-11-23T18:12:30.913Z,8.27
2022-11-23T18:14:53.245Z,10.50
2022-11-23T18:17:22.323Z,9.67
2022-11-23T18:19:45.600Z,9.67
2022-11-23T18:22:08.062Z,7.50
2022-11-23T18:24:30.409Z,11.80
2022-11-23T18:26:55.830Z,13.50
2022-11-23T18:29:18.107Z,8.67
2022-11-23T18:31:40.740Z,14.07
2022-11-23T18:34:05.378Z,7.77
2022-11-23T18:36:27.975Z,10.40
2022-11-23T18:38:50.574Z,10.90
2022-11-23T18:41:16.832Z,9.50
2022-11-23T18:43:39.395Z,11.60
2022-11-23T18:46:05.558Z,13.57
2022-11-23T18:48:28.263Z,13.00
2022-11-23T18:50:51.725Z,11.40
2022-11-23T18:53:17.819Z,14.30
2022-11-23T18:55:40.176Z,9.83
2022-11-23T18:58:02.586Z,12.10
2022-11-23T19:00:27.328Z,11.40
2022-11-23T19:02:53.703Z,10.60
2022-11-23T19:05:16.397Z,11.90
2022-11-23T19:07:38.982Z,12.17
2022-11-23T19:10:01.474Z,14.63
2022-11-23T19:12:24.019Z,10.13
2022-11-23T19:14:49.946Z,14.30
2022-11-23T19:17:21.386Z,9.20
2022-11-23T19:19:45.389Z,9.73
2022-11-23T19:22:07.888Z,11.90
2022-11-23T19:24:30.563Z,12.93
2022-11-23T19:29:29.462Z,10.57
2022-11-23T19:31:54.582Z,12.67
2022-11-23T19:34:17.200Z,9.67
2022-11-23T19:36:40.784Z,15.67
2022-11-23T19:39:04.287Z,13.13
2022-11-23T19:41:30.664Z,15.73
2022-11-23T19:43:54.367Z,14.73
2022-11-23T19:46:17.193Z,14.37
2022-11-23T19:48:40.235Z,14.30
2022-11-23T19:51:02.796Z,10.87
2022-11-23T19:53:29.311Z,19.90
2022-11-23T19:55:53.407Z,18.43
2022-11-23T19:58:16.543Z,12.20
2022-11-23T20:00:39.809Z,16.77
2022-11-23T20:03:03.142Z,16.80
2022-11-23T20:05:25.592Z,14.43
2022-11-23T20:07:48.071Z,21.43
2022-11-23T20:10:10.623Z,20.50
2022-11-23T20:12:33.913Z,14.50
2022-11-23T20:14:56.344Z,13.43
2022-11-23T20:17:18.793Z,14.30
2022-11-23T20:19:41.146Z,20.83
2022-11-23T20:22:04.155Z,17.60
2022-11-23T20:24:26.848Z,11.83
2022-11-23T20:26:49.383Z,13.77
2022-11-23T20:29:13.858Z,18.90
2022-11-23T20:31:37.032Z,13.00
2022-11-23T20:33:59.786Z,14.60
2022-11-23T20:36:23.381Z,15.33
2022-11-23T20:38:45.960Z,19.30
2022-11-23T20:41:15.500Z,18.10
2022-11-23T20:43:37.990Z,14.53
2022-11-23T20:46:00.151Z,12.80
2022-11-23T20:48:22.697Z,11.17
2022-11-23T20:50:45.341Z,18.63
2022-11-23T20:53:07.779Z,15.13
2022-11-23T20:55:33.394Z,10.77
2022-11-23T20:57:55.970Z,11.53
2022-11-23T21:00:19.898Z,18.30
2022-11-23T21:02:42.296Z,16.70
2022-11-23T21:05:04.791Z,16.80
2022-11-23T21:07:28.266Z,13.53
2022-11-23T21:09:50.993Z,9.97
2022-11-23T21:12:32.471Z,14.57
2022-11-23T21:14:55.125Z,18.77
2022-11-23T21:17:17.867Z,13.53
2022-11-23T21:19:40.921Z,17.60
2022-11-23T21:22:04.802Z,16.00
2022-11-23T21:24:27.320Z,7.63
2022-11-23T21:26:50.397Z,13.00
2022-11-23T21:29:13.486Z,11.40
2022-11-23T21:31:36.216Z,13.63
2022-11-23T21:34:05.256Z,14.60
2022-11-23T21:36:27.828Z,13.77
2022-11-23T21:38:50.149Z,10.07
2022-11-23T21:41:14.088Z,19.07
2022-11-23T21:43:36.828Z,15.60
2022-11-23T21:46:00.291Z,17.70
2022-11-23T21:48:22.735Z,12.70
2022-11-23T21:50:46.238Z,16.10
2022-11-23T21:53:08.837Z,9.97
2022-11-23T21:55:31.424Z,14.73
2022-11-23T21:57:53.658Z,12.17
2022-11-23T22:00:16.172Z,14.10
2022-11-23T22:02:38.916Z,10.93
2022-11-23T22:05:01.432Z,12.50
2022-11-23T22:07:23.777Z,5.53
2022-11-23T22:09:46.263Z,15.77
2022-11-23T22:12:08.614Z,8.47
2022-11-23T22:14:31.266Z,7.90
2022-11-23T22:16:55.605Z,23.10
2022-11-23T22:19:18.787Z,27.10
2022-11-23T22:21:42.558Z,16.63
2022-11-23T22:24:05.451Z,12.57
2022-11-23T22:26:28.345Z,14.20
2022-11-23T22:28:51.764Z,11.37
2022-11-23T22:31:15.200Z,13.07
2022-11-23T22:33:38.080Z,18.60
2022-11-23T22:36:01.270Z,19.03
2022-11-23T22:38:23.758Z,12.40
2022-11-23T22:40:49.755Z,12.60
2022-11-23T22:43:12.263Z,18.80
2022-11-23T22:45:37.232Z,16.97
2022-11-23T22:47:59.531Z,20.03
2022-11-23T22:50:22.247Z,15.83
2022-11-23T22:52:44.553Z,18.47
2022-11-23T22:55:07.038Z,20.20
2022-11-23T22:57:29.335Z,12.87
2022-11-23T22:59:53.330Z,10.50
2022-11-23T23:02:15.682Z,11.93
2022-11-23T23:04:37.953Z,11.97
2022-11-23T23:07:00.169Z,7.93
2022-11-23T23:09:22.511Z,11.83
2022-11-23T23:11:44.754Z,13.53
2022-11-23T23:14:07.518Z,18.87
2022-11-23T23:16:30.349Z,13.60
2022-11-23T23:18:54.866Z,12.80
2022-11-23T23:21:18.218Z,13.33
2022-11-23T23:23:42.131Z,12.43
2022-11-23T23:26:04.512Z,13.43
2022-11-23T23:28:27.291Z,14.57
2022-11-23T23:30:49.591Z,15.20
2022-11-23T23:33:13.280Z,11.70
2022-11-23T23:35:36.216Z,15.30
2022-11-23T23:37:58.655Z,12.10
2022-11-23T23:40:20.889Z,18.07
2022-11-23T23:42:43.162Z,20.37
2022-11-23T23:45:05.573Z,15.47
2022-11-23T23:47:28.077Z,11.37
2022-11-23T23:49:50.347Z,9.53
2022-11-23T23:52:12.535Z,13.53
2022-11-23T23:54:35.119Z,16.90
2022-11-23T23:56:57.883Z,13.57
2022-11-23T23:59:20.295Z,16.50
